sensor_id;sensor_type;location;lat;lon;timestamp;P1;durP1;ratioP1;P2;durP2;ratioP2
32633;SDS011;19043;51.012;5.648;2023-03-14T00:01:42;13.35;;;3.08;;
32633;SDS011;19043;51.012;5.648;2023-03-14T00:04:08;16.33;;;3.13;;
32633;SDS011;19043;51.012;5.648;2023-03-14T00:06:34;11.70;;;2.67;;
32633;SDS011;19043;51.012;5.648;2023-03-14T00:08:59;7.35;;;2.83;;
32633;SDS011;19043;51.012;5.648;2023-03-14T00:11:25;8.63;;;1.90;;
32633;SDS011;19043;51.012;5.648;2023-03-14T00:13:51;11.73;;;2.67;;
32633;SDS011;19043;51.012;5.648;2023-03-14T00:16:17;8.10;;;2.30;;
32633;SDS011;19043;51.012;5.648;2023-03-14T00:18:42;9.65;;;2.45;;
32633;SDS011;19043;51.012;5.648;2023-03-14T00:21:08;9.57;;;2.10;;
32633;SDS011;19043;51.012;5.648;2023-03-14T00:23:35;12.65;;;2.67;;
32633;SDS011;19043;51.012;5.648;2023-03-14T00:26:01;5.25;;;2.17;;
32633;SDS011;19043;51.012;5.648;2023-03-14T00:28:27;5.55;;;2.08;;
32633;SDS011;19043;51.012;5.648;2023-03-14T00:30:52;10.45;;;2.28;;
32633;SDS011;19043;51.012;5.648;2023-03-14T00:33:17;4.93;;;1.83;;
32633;SDS011;19043;51.012;5.648;2023-03-14T00:35:42;11.52;;;2.05;;
32633;SDS011;19043;51.012;5.648;2023-03-14T00:38:08;8.32;;;2.10;;
32633;SDS011;19043;51.012;5.648;2023-03-14T00:40:33;4.32;;;2.20;;
32633;SDS011;19043;51.012;5.648;2023-03-14T00:42:58;6.18;;;2.10;;
32633;SDS011;19043;51.012;5.648;2023-03-14T00:45:23;4.47;;;1.67;;
32633;SDS011;19043;51.012;5.648;2023-03-14T00:47:49;8.55;;;2.45;;
32633;SDS011;19043;51.012;5.648;2023-03-14T00:50:14;6.30;;;2.38;;
32633;SDS011;19043;51.012;5.648;2023-03-14T00:52:39;10.15;;;1.90;;
32633;SDS011;19043;51.012;5.648;2023-03-14T00:55:05;3.28;;;1.45;;
32633;SDS011;19043;51.012;5.648;2023-03-14T00:57:30;6.43;;;2.20;;
32633;SDS011;19043;51.012;5.648;2023-03-14T00:59:55;10.50;;;2.55;;
32633;SDS011;19043;51.012;5.648;2023-03-14T01:02:21;8.60;;;2.15;;
32633;SDS011;19043;51.012;5.648;2023-03-14T01:04:49;7.47;;;1.55;;
32633;SDS011;19043;51.012;5.648;2023-03-14T01:07:14;5.78;;;1.90;;
32633;SDS011;19043;51.012;5.648;2023-03-14T01:09:40;6.95;;;2.50;;
32633;SDS011;19043;51.012;5.648;2023-03-14T01:12:05;4.60;;;2.10;;
32633;SDS011;19043;51.012;5.648;2023-03-14T01:14:30;11.00;;;2.88;;
32633;SDS011;19043;51.012;5.648;2023-03-14T01:16:56;7.03;;;2.33;;
32633;SDS011;19043;51.012;5.648;2023-03-14T01:19:26;9.20;;;2.42;;
32633;SDS011;19043;51.012;5.648;2023-03-14T01:21:51;6.32;;;2.33;;
32633;SDS011;19043;51.012;5.648;2023-03-14T01:24:16;6.20;;;2.40;;
32633;SDS011;19043;51.012;5.648;2023-03-14T01:26:41;6.55;;;2.42;;
32633;SDS011;19043;51.012;5.648;2023-03-14T01:29:06;9.90;;;2.38;;
32633;SDS011;19043;51.012;5.648;2023-03-14T01:31:32;10.93;;;2.30;;
32633;SDS011;19043;51.012;5.648;2023-03-14T01:33:58;15.98;;;2.63;;
32633;SDS011;19043;51.012;5.648;2023-03-14T01:36:23;7.43;;;2.42;;
32633;SDS011;19043;51.012;5.648;2023-03-14T01:38:48;7.03;;;2.78;;
32633;SDS011;19043;51.012;5.648;2023-03-14T01:41:15;7.32;;;2.28;;
32633;SDS011;19043;51.012;5.648;2023-03-14T01:43:40;13.82;;;3.25;;
32633;SDS011;19043;51.012;5.648;2023-03-14T01:48:39;12.57;;;2.92;;
32633;SDS011;19043;51.012;5.648;2023-03-14T01:51:06;8.45;;;2.60;;
32633;SDS011;19043;51.012;5.648;2023-03-14T01:53:33;6.32;;;2.60;;
32633;SDS011;19043;51.012;5.648;2023-03-14T01:55:58;10.52;;;3.22;;
32633;SDS011;19043;51.012;5.648;2023-03-14T01:58:24;14.80;;;3.20;;
32633;SDS011;19043;51.012;5.648;2023-03-14T02:00:52;7.50;;;3.38;;
32633;SDS011;19043;51.012;5.648;2023-03-14T02:03:17;6.28;;;2.70;;
32633;SDS011;19043;51.012;5.648;2023-03-14T02:05:46;8.52;;;2.47;;
32633;SDS011;19043;51.012;5.648;2023-03-14T02:08:15;9.73;;;2.45;;
32633;SDS011;19043;51.012;5.648;2023-03-14T02:10:47;9.85;;;3.30;;
32633;SDS011;19043;51.012;5.648;2023-03-14T02:13:13;8.18;;;2.85;;
32633;SDS011;19043;51.012;5.648;2023-03-14T02:15:39;11.48;;;3.10;;
32633;SDS011;19043;51.012;5.648;2023-03-14T02:18:04;12.70;;;3.15;;
32633;SDS011;19043;51.012;5.648;2023-03-14T02:22:58;11.10;;;3.38;;
32633;SDS011;19043;51.012;5.648;2023-03-14T02:27:49;12.90;;;2.97;;
32633;SDS011;19043;51.012;5.648;2023-03-14T02:30:15;8.70;;;2.92;;
32633;SDS011;19043;51.012;5.648;2023-03-14T02:32:43;18.88;;;3.33;;
32633;SDS011;19043;51.012;5.648;2023-03-14T02:35:12;14.55;;;3.55;;
32633;SDS011;19043;51.012;5.648;2023-03-14T02:37:43;14.55;;;3.97;;
32633;SDS011;19043;51.012;5.648;2023-03-14T02:40:10;9.32;;;2.83;;
32633;SDS011;19043;51.012;5.648;2023-03-14T02:42:36;11.45;;;3.92;;
32633;SDS011;19043;51.012;5.648;2023-03-14T02:47:32;6.18;;;2.75;;
32633;SDS011;19043;51.012;5.648;2023-03-14T02:49:59;10.60;;;3.30;;
32633;SDS011;19043;51.012;5.648;2023-03-14T02:52:25;12.98;;;4.50;;
32633;SDS011;19043;51.012;5.648;2023-03-14T02:54:51;7.53;;;2.90;;
32633;SDS011;19043;51.012;5.648;2023-03-14T02:57:16;12.40;;;3.65;;
32633;SDS011;19043;51.012;5.648;2023-03-14T02:59:41;6.95;;;2.95;;
32633;SDS011;19043;51.012;5.648;2023-03-14T03:02:06;7.97;;;2.38;;
32633;SDS011;19043;51.012;5.648;2023-03-14T03:04:32;12.25;;;2.85;;
32633;SDS011;19043;51.012;5.648;2023-03-14T03:06:57;13.27;;;3.40;;
32633;SDS011;19043;51.012;5.648;2023-03-14T03:09:22;11.27;;;3.05;;
32633;SDS011;19043;51.012;5.648;2023-03-14T03:11:47;12.48;;;3.10;;
32633;SDS011;19043;51.012;5.648;2023-03-14T03:14:13;8.00;;;3.40;;
32633;SDS011;19043;51.012;5.648;2023-03-14T03:16:38;10.68;;;3.60;;
32633;SDS011;19043;51.012;5.648;2023-03-14T03:19:03;12.93;;;2.88;;
32633;SDS011;19043;51.012;5.648;2023-03-14T03:21:28;15.82;;;4.15;;
32633;SDS011;19043;51.012;5.648;2023-03-14T03:23:54;11.18;;;3.85;;
32633;SDS011;19043;51.012;5.648;2023-03-14T03:26:19;10.13;;;3.20;;
32633;SDS011;19043;51.012;5.648;2023-03-14T03:28:44;11.10;;;4.05;;
32633;SDS011;19043;51.012;5.648;2023-03-14T03:31:10;6.45;;;2.65;;
32633;SDS011;19043;51.012;5.648;2023-03-14T03:33:36;5.97;;;2.55;;
32633;SDS011;19043;51.012;5.648;2023-03-14T03:36:02;6.85;;;2.47;;
32633;SDS011;19043;51.012;5.648;2023-03-14T03:38:27;5.93;;;2.08;;
32633;SDS011;19043;51.012;5.648;2023-03-14T03:40:52;5.50;;;2.08;;
32633;SDS011;19043;51.012;5.648;2023-03-14T03:43:18;2.95;;;1.23;;
32633;SDS011;19043;51.012;5.648;2023-03-14T03:45:43;7.78;;;2.53;;
32633;SDS011;19043;51.012;5.648;2023-03-14T03:48:08;4.53;;;1.35;;
32633;SDS011;19043;51.012;5.648;2023-03-14T03:50:34;7.47;;;1.58;;
32633;SDS011;19043;51.012;5.648;2023-03-14T03:52:59;6.90;;;2.13;;
32633;SDS011;19043;51.012;5.648;2023-03-14T03:55:24;5.40;;;2.38;;
32633;SDS011;19043;51.012;5.648;2023-03-14T03:57:50;7.30;;;2.90;;
32633;SDS011;19043;51.012;5.648;2023-03-14T04:00:16;11.85;;;3.90;;
32633;SDS011;19043;51.012;5.648;2023-03-14T04:02:41;17.50;;;4.75;;
32633;SDS011;19043;51.012;5.648;2023-03-14T04:05:07;12.73;;;4.18;;
32633;SDS011;19043;51.012;5.648;2023-03-14T04:07:32;14.68;;;4.72;;
32633;SDS011;19043;51.012;5.648;2023-03-14T04:09:57;12.15;;;4.65;;
32633;SDS011;19043;51.012;5.648;2023-03-14T04:12:23;12.60;;;4.93;;
32633;SDS011;19043;51.012;5.648;2023-03-14T04:14:48;16.08;;;4.55;;
32633;SDS011;19043;51.012;5.648;2023-03-14T04:17:13;15.45;;;4.32;;
32633;SDS011;19043;51.012;5.648;2023-03-14T04:19:38;10.55;;;4.45;;
32633;SDS011;19043;51.012;5.648;2023-03-14T04:22:04;22.42;;;4.65;;
32633;SDS011;19043;51.012;5.648;2023-03-14T04:24:29;9.02;;;4.13;;
32633;SDS011;19043;51.012;5.648;2023-03-14T04:26:54;18.05;;;4.47;;
32633;SDS011;19043;51.012;5.648;2023-03-14T04:29:19;8.75;;;3.65;;
32633;SDS011;19043;51.012;5.648;2023-03-14T04:31:45;11.00;;;3.40;;
32633;SDS011;19043;51.012;5.648;2023-03-14T04:34:10;9.77;;;3.15;;
32633;SDS011;19043;51.012;5.648;2023-03-14T04:36:35;13.95;;;3.97;;
32633;SDS011;19043;51.012;5.648;2023-03-14T04:39:00;10.00;;;3.53;;
32633;SDS011;19043;51.012;5.648;2023-03-14T04:41:26;9.55;;;3.47;;
32633;SDS011;19043;51.012;5.648;2023-03-14T04:43:51;21.13;;;2.50;;
32633;SDS011;19043;51.012;5.648;2023-03-14T04:46:16;9.13;;;3.20;;
32633;SDS011;19043;51.012;5.648;2023-03-14T04:48:42;7.90;;;2.53;;
32633;SDS011;19043;51.012;5.648;2023-03-14T04:51:07;13.10;;;3.35;;
32633;SDS011;19043;51.012;5.648;2023-03-14T04:53:32;6.63;;;2.47;;
32633;SDS011;19043;51.012;5.648;2023-03-14T04:55:59;5.38;;;2.42;;
32633;SDS011;19043;51.012;5.648;2023-03-14T04:58:24;4.97;;;2.42;;
32633;SDS011;19043;51.012;5.648;2023-03-14T05:00:49;7.18;;;2.30;;
32633;SDS011;19043;51.012;5.648;2023-03-14T05:03:15;5.60;;;1.95;;
32633;SDS011;19043;51.012;5.648;2023-03-14T05:05:40;6.35;;;2.20;;
32633;SDS011;19043;51.012;5.648;2023-03-14T05:08:06;3.72;;;2.00;;
32633;SDS011;19043;51.012;5.648;2023-03-14T05:10:31;5.30;;;2.20;;
32633;SDS011;19043;51.012;5.648;2023-03-14T05:12:56;3.90;;;1.52;;
32633;SDS011;19043;51.012;5.648;2023-03-14T05:15:21;3.08;;;1.40;;
32633;SDS011;19043;51.012;5.648;2023-03-14T05:17:47;3.33;;;1.58;;
32633;SDS011;19043;51.012;5.648;2023-03-14T05:20:13;4.90;;;2.00;;
32633;SDS011;19043;51.012;5.648;2023-03-14T05:22:39;4.63;;;2.00;;
32633;SDS011;19043;51.012;5.648;2023-03-14T05:25:04;7.45;;;1.42;;
32633;SDS011;19043;51.012;5.648;2023-03-14T05:27:30;3.97;;;1.50;;
32633;SDS011;19043;51.012;5.648;2023-03-14T05:29:55;6.20;;;2.20;;
32633;SDS011;19043;51.012;5.648;2023-03-14T05:32:20;4.85;;;2.20;;
32633;SDS011;19043;51.012;5.648;2023-03-14T05:34:46;4.28;;;2.20;;
32633;SDS011;19043;51.012;5.648;2023-03-14T05:37:11;5.88;;;2.00;;
32633;SDS011;19043;51.012;5.648;2023-03-14T05:39:36;4.18;;;2.30;;
32633;SDS011;19043;51.012;5.648;2023-03-14T05:42:02;4.35;;;2.00;;
32633;SDS011;19043;51.012;5.648;2023-03-14T05:44:27;3.20;;;1.50;;
32633;SDS011;19043;51.012;5.648;2023-03-14T05:46:52;4.82;;;1.90;;
32633;SDS011;19043;51.012;5.648;2023-03-14T05:49:17;3.90;;;1.92;;
32633;SDS011;19043;51.012;5.648;2023-03-14T05:51:43;3.85;;;1.70;;
32633;SDS011;19043;51.012;5.648;2023-03-14T05:54:08;4.43;;;1.55;;
32633;SDS011;19043;51.012;5.648;2023-03-14T05:56:33;4.15;;;1.85;;
32633;SDS011;19043;51.012;5.648;2023-03-14T05:58:58;3.55;;;1.88;;
32633;SDS011;19043;51.012;5.648;2023-03-14T06:01:27;4.13;;;2.10;;
32633;SDS011;19043;51.012;5.648;2023-03-14T06:03:52;4.45;;;2.28;;
32633;SDS011;19043;51.012;5.648;2023-03-14T06:06:17;4.72;;;1.90;;
32633;SDS011;19043;51.012;5.648;2023-03-14T06:08:42;9.35;;;2.00;;
32633;SDS011;19043;51.012;5.648;2023-03-14T06:11:08;3.00;;;1.63;;
32633;SDS011;19043;51.012;5.648;2023-03-14T06:13:34;3.78;;;1.98;;
32633;SDS011;19043;51.012;5.648;2023-03-14T06:15:59;5.25;;;2.67;;
32633;SDS011;19043;51.012;5.648;2023-03-14T06:18:24;3.33;;;2.13;;
32633;SDS011;19043;51.012;5.648;2023-03-14T06:20:52;3.90;;;2.33;;
32633;SDS011;19043;51.012;5.648;2023-03-14T06:23:18;3.33;;;2.22;;
32633;SDS011;19043;51.012;5.648;2023-03-14T06:25:43;4.35;;;2.38;;
32633;SDS011;19043;51.012;5.648;2023-03-14T06:28:08;8.50;;;2.58;;
32633;SDS011;19043;51.012;5.648;2023-03-14T06:30:33;4.60;;;1.98;;
32633;SDS011;19043;51.012;5.648;2023-03-14T06:32:59;8.55;;;2.47;;
32633;SDS011;19043;51.012;5.648;2023-03-14T06:35:24;4.35;;;2.60;;
32633;SDS011;19043;51.012;5.648;2023-03-14T06:37:49;6.10;;;2.80;;
32633;SDS011;19043;51.012;5.648;2023-03-14T06:40:15;8.05;;;2.53;;
32633;SDS011;19043;51.012;5.648;2023-03-14T06:42:45;3.92;;;2.85;;
32633;SDS011;19043;51.012;5.648;2023-03-14T06:45:11;6.70;;;3.28;;
32633;SDS011;19043;51.012;5.648;2023-03-14T06:47:36;6.10;;;2.72;;
32633;SDS011;19043;51.012;5.648;2023-03-14T06:50:03;5.57;;;2.80;;
32633;SDS011;19043;51.012;5.648;2023-03-14T06:52:28;4.80;;;2.97;;
32633;SDS011;19043;51.012;5.648;2023-03-14T06:54:54;5.28;;;3.03;;
32633;SDS011;19043;51.012;5.648;2023-03-14T06:57:19;8.55;;;3.10;;
32633;SDS011;19043;51.012;5.648;2023-03-14T06:59:44;4.57;;;2.72;;
32633;SDS011;19043;51.012;5.648;2023-03-14T07:02:10;5.43;;;3.58;;
32633;SDS011;19043;51.012;5.648;2023-03-14T07:04:36;5.30;;;3.17;;
32633;SDS011;19043;51.012;5.648;2023-03-14T07:07:01;8.07;;;3.42;;
32633;SDS011;19043;51.012;5.648;2023-03-14T07:09:26;7.88;;;3.78;;
32633;SDS011;19043;51.012;5.648;2023-03-14T07:11:52;8.90;;;3.28;;
32633;SDS011;19043;51.012;5.648;2023-03-14T07:14:17;8.10;;;3.33;;
32633;SDS011;19043;51.012;5.648;2023-03-14T07:16:42;6.97;;;3.08;;
32633;SDS011;19043;51.012;5.648;2023-03-14T07:19:07;9.10;;;3.83;;
32633;SDS011;19043;51.012;5.648;2023-03-14T07:21:33;6.38;;;3.17;;
32633;SDS011;19043;51.012;5.648;2023-03-14T07:23:59;4.40;;;3.20;;
32633;SDS011;19043;51.012;5.648;2023-03-14T07:26:25;6.03;;;3.22;;
32633;SDS011;19043;51.012;5.648;2023-03-14T07:28:50;3.85;;;2.78;;
32633;SDS011;19043;51.012;5.648;2023-03-14T07:31:15;13.88;;;3.15;;
32633;SDS011;19043;51.012;5.648;2023-03-14T07:33:40;5.60;;;3.20;;
32633;SDS011;19043;51.012;5.648;2023-03-14T07:36:06;4.43;;;2.92;;
32633;SDS011;19043;51.012;5.648;2023-03-14T07:38:31;6.20;;;3.08;;
32633;SDS011;19043;51.012;5.648;2023-03-14T07:41:00;5.03;;;3.15;;
32633;SDS011;19043;51.012;5.648;2023-03-14T07:43:25;7.40;;;3.65;;
32633;SDS011;19043;51.012;5.648;2023-03-14T07:45:51;4.65;;;2.75;;
32633;SDS011;19043;51.012;5.648;2023-03-14T07:48:16;8.23;;;2.95;;
32633;SDS011;19043;51.012;5.648;2023-03-14T07:50:42;6.60;;;3.00;;
32633;SDS011;19043;51.012;5.648;2023-03-14T07:53:07;4.68;;;2.05;;
32633;SDS011;19043;51.012;5.648;2023-03-14T07:55:32;3.15;;;1.30;;
32633;SDS011;19043;51.012;5.648;2023-03-14T07:57:57;2.63;;;1.50;;
32633;SDS011;19043;51.012;5.648;2023-03-14T08:00:23;7.20;;;1.50;;
32633;SDS011;19043;51.012;5.648;2023-03-14T08:02:48;5.07;;;2.10;;
32633;SDS011;19043;51.012;5.648;2023-03-14T08:05:13;3.17;;;1.50;;
32633;SDS011;19043;51.012;5.648;2023-03-14T08:07:39;6.53;;;1.92;;
32633;SDS011;19043;51.012;5.648;2023-03-14T08:10:04;3.33;;;1.67;;
32633;SDS011;19043;51.012;5.648;2023-03-14T08:12:30;2.65;;;1.13;;
32633;SDS011;19043;51.012;5.648;2023-03-14T08:14:55;2.00;;;0.93;;
32633;SDS011;19043;51.012;5.648;2023-03-14T08:17:20;1.98;;;0.85;;
32633;SDS011;19043;51.012;5.648;2023-03-14T08:19:45;6.63;;;1.02;;
32633;SDS011;19043;51.012;5.648;2023-03-14T08:22:11;1.45;;;0.68;;
32633;SDS011;19043;51.012;5.648;2023-03-14T08:24:36;4.47;;;0.73;;
32633;SDS011;19043;51.012;5.648;2023-03-14T08:27:01;2.50;;;0.77;;
32633;SDS011;19043;51.012;5.648;2023-03-14T08:29:27;1.23;;;0.50;;
32633;SDS011;19043;51.012;5.648;2023-03-14T08:31:52;2.50;;;0.80;;
32633;SDS011;19043;51.012;5.648;2023-03-14T08:34:18;1.73;;;0.73;;
32633;SDS011;19043;51.012;5.648;2023-03-14T08:36:44;1.33;;;0.57;;
32633;SDS011;19043;51.012;5.648;2023-03-14T08:39:09;2.42;;;0.63;;
32633;SDS011;19043;51.012;5.648;2023-03-14T08:41:35;7.10;;;1.13;;
32633;SDS011;19043;51.012;5.648;2023-03-14T08:44:05;2.22;;;0.70;;
32633;SDS011;19043;51.012;5.648;2023-03-14T08:46:30;1.90;;;0.70;;
32633;SDS011;19043;51.012;5.648;2023-03-14T08:48:56;1.70;;;0.70;;
32633;SDS011;19043;51.012;5.648;2023-03-14T08:51:21;2.20;;;0.80;;
32633;SDS011;19043;51.012;5.648;2023-03-14T08:53:46;1.70;;;0.73;;
32633;SDS011;19043;51.012;5.648;2023-03-14T08:56:11;1.88;;;0.98;;
32633;SDS011;19043;51.012;5.648;2023-03-14T08:58:37;2.30;;;1.02;;
32633;SDS011;19043;51.012;5.648;2023-03-14T09:01:03;1.65;;;0.50;;
32633;SDS011;19043;51.012;5.648;2023-03-14T09:03:29;1.80;;;0.70;;
32633;SDS011;19043;51.012;5.648;2023-03-14T09:05:54;2.72;;;0.95;;
32633;SDS011;19043;51.012;5.648;2023-03-14T09:08:20;3.22;;;0.80;;
32633;SDS011;19043;51.012;5.648;2023-03-14T09:10:45;3.15;;;0.98;;
32633;SDS011;19043;51.012;5.648;2023-03-14T09:13:10;2.05;;;0.60;;
32633;SDS011;19043;51.012;5.648;2023-03-14T09:15:36;2.95;;;0.95;;
32633;SDS011;19043;51.012;5.648;2023-03-14T09:18:01;2.72;;;0.73;;
32633;SDS011;19043;51.012;5.648;2023-03-14T09:20:26;3.10;;;1.00;;
32633;SDS011;19043;51.012;5.648;2023-03-14T09:22:52;4.35;;;0.95;;
32633;SDS011;19043;51.012;5.648;2023-03-14T09:25:17;1.70;;;0.55;;
32633;SDS011;19043;51.012;5.648;2023-03-14T09:27:42;2.80;;;0.70;;
32633;SDS011;19043;51.012;5.648;2023-03-14T09:30:08;7.57;;;1.00;;
32633;SDS011;19043;51.012;5.648;2023-03-14T09:32:33;4.85;;;1.13;;
32633;SDS011;19043;51.012;5.648;2023-03-14T09:34:59;2.38;;;0.88;;
32633;SDS011;19043;51.012;5.648;2023-03-14T09:37:24;3.55;;;0.82;;
32633;SDS011;19043;51.012;5.648;2023-03-14T09:39:49;4.07;;;1.00;;
32633;SDS011;19043;51.012;5.648;2023-03-14T09:42:16;3.15;;;1.27;;
32633;SDS011;19043;51.012;5.648;2023-03-14T09:44:46;2.90;;;0.95;;
32633;SDS011;19043;51.012;5.648;2023-03-14T09:47:16;5.35;;;1.63;;
32633;SDS011;19043;51.012;5.648;2023-03-14T09:49:44;5.63;;;1.13;;
32633;SDS011;19043;51.012;5.648;2023-03-14T09:52:14;3.88;;;1.10;;
32633;SDS011;19043;51.012;5.648;2023-03-14T09:54:42;4.22;;;1.55;;
32633;SDS011;19043;51.012;5.648;2023-03-14T09:57:11;3.47;;;1.38;;
32633;SDS011;19043;51.012;5.648;2023-03-14T09:59:37;4.32;;;1.42;;
32633;SDS011;19043;51.012;5.648;2023-03-14T10:04:57;3.97;;;1.33;;
32633;SDS011;19043;51.012;5.648;2023-03-14T10:07:30;3.17;;;1.30;;
32633;SDS011;19043;51.012;5.648;2023-03-14T10:09:55;2.90;;;1.08;;
32633;SDS011;19043;51.012;5.648;2023-03-14T10:12:30;2.28;;;1.20;;
32633;SDS011;19043;51.012;5.648;2023-03-14T10:14:55;2.63;;;0.93;;
32633;SDS011;19043;51.012;5.648;2023-03-14T10:17:21;3.85;;;1.15;;
32633;SDS011;19043;51.012;5.648;2023-03-14T10:19:52;2.85;;;0.95;;
32633;SDS011;19043;51.012;5.648;2023-03-14T10:22:18;4.60;;;1.20;;
32633;SDS011;19043;51.012;5.648;2023-03-14T10:24:50;3.35;;;1.13;;
32633;SDS011;19043;51.012;5.648;2023-03-14T10:27:18;2.40;;;1.00;;
32633;SDS011;19043;51.012;5.648;2023-03-14T10:29:54;2.55;;;1.10;;
32633;SDS011;19043;51.012;5.648;2023-03-14T10:32:21;4.43;;;1.08;;
32633;SDS011;19043;51.012;5.648;2023-03-14T10:35:03;3.83;;;1.15;;
32633;SDS011;19043;51.012;5.648;2023-03-14T10:37:29;3.25;;;1.15;;
32633;SDS011;19043;51.012;5.648;2023-03-14T10:40:00;4.80;;;1.20;;
32633;SDS011;19043;51.012;5.648;2023-03-14T10:42:34;3.20;;;1.13;;
32633;SDS011;19043;51.012;5.648;2023-03-14T10:45:42;6.80;;;1.52;;
32633;SDS011;19043;51.012;5.648;2023-03-14T10:47:49;3.13;;;1.00;;
32633;SDS011;19043;51.012;5.648;2023-03-14T10:50:30;4.88;;;1.50;;
32633;SDS011;19043;51.012;5.648;2023-03-14T10:52:56;6.18;;;1.60;;
32633;SDS011;19043;51.012;5.648;2023-03-14T10:55:23;5.32;;;1.42;;
32633;SDS011;19043;51.012;5.648;2023-03-14T10:57:48;2.60;;;1.15;;
32633;SDS011;19043;51.012;5.648;2023-03-14T11:05:18;2.10;;;0.93;;
32633;SDS011;19043;51.012;5.648;2023-03-14T11:07:46;2.50;;;1.20;;
32633;SDS011;19043;51.012;5.648;2023-03-14T11:17:50;5.68;;;2.58;;
32633;SDS011;19043;51.012;5.648;2023-03-14T11:23:04;6.75;;;2.05;;
32633;SDS011;19043;51.012;5.648;2023-03-14T11:25:36;5.15;;;1.95;;
32633;SDS011;19043;51.012;5.648;2023-03-14T11:28:15;4.70;;;2.03;;
32633;SDS011;19043;51.012;5.648;2023-03-14T11:30:45;7.10;;;1.75;;
32633;SDS011;19043;51.012;5.648;2023-03-14T11:33:15;7.60;;;1.50;;
32633;SDS011;19043;51.012;5.648;2023-03-14T11:36:01;5.03;;;1.80;;
32633;SDS011;19043;51.012;5.648;2023-03-14T11:40:59;4.38;;;1.50;;
32633;SDS011;19043;51.012;5.648;2023-03-14T11:43:32;3.00;;;1.35;;
32633;SDS011;19043;51.012;5.648;2023-03-14T11:46:21;3.85;;;1.77;;
32633;SDS011;19043;51.012;5.648;2023-03-14T11:48:51;7.20;;;1.63;;
32633;SDS011;19043;51.012;5.648;2023-03-14T11:51:23;6.60;;;1.60;;
32633;SDS011;19043;51.012;5.648;2023-03-14T11:53:50;9.57;;;2.03;;
32633;SDS011;19043;51.012;5.648;2023-03-14T11:56:29;5.68;;;1.67;;
32633;SDS011;19043;51.012;5.648;2023-03-14T11:59:01;7.72;;;2.30;;
32633;SDS011;19043;51.012;5.648;2023-03-14T12:01:31;6.57;;;1.85;;
32633;SDS011;19043;51.012;5.648;2023-03-14T12:04:20;9.10;;;3.00;;
32633;SDS011;19043;51.012;5.648;2023-03-14T12:06:48;7.90;;;2.05;;
32633;SDS011;19043;51.012;5.648;2023-03-14T12:09:14;9.90;;;2.33;;
32633;SDS011;19043;51.012;5.648;2023-03-14T12:14:27;6.88;;;1.67;;
32633;SDS011;19043;51.012;5.648;2023-03-14T12:16:55;7.15;;;1.90;;
32633;SDS011;19043;51.012;5.648;2023-03-14T12:24:19;6.60;;;2.10;;
32633;SDS011;19043;51.012;5.648;2023-03-14T12:27:05;5.00;;;1.67;;
32633;SDS011;19043;51.012;5.648;2023-03-14T12:29:34;4.72;;;1.70;;
32633;SDS011;19043;51.012;5.648;2023-03-14T12:32:23;5.55;;;2.08;;
32633;SDS011;19043;51.012;5.648;2023-03-14T12:34:48;4.40;;;1.67;;
32633;SDS011;19043;51.012;5.648;2023-03-14T12:37:16;7.10;;;2.17;;
32633;SDS011;19043;51.012;5.648;2023-03-14T12:42:14;7.90;;;1.65;;
32633;SDS011;19043;51.012;5.648;2023-03-14T12:44:46;7.05;;;2.00;;
32633;SDS011;19043;51.012;5.648;2023-03-14T12:49:40;13.05;;;2.40;;
32633;SDS011;19043;51.012;5.648;2023-03-14T12:52:12;8.48;;;2.83;;
32633;SDS011;19043;51.012;5.648;2023-03-14T12:59:36;15.82;;;6.82;;
32633;SDS011;19043;51.012;5.648;2023-03-14T13:04:28;11.05;;;2.70;;
32633;SDS011;19043;51.012;5.648;2023-03-14T13:06:55;6.97;;;3.10;;
32633;SDS011;19043;51.012;5.648;2023-03-14T13:11:49;13.23;;;3.40;;
32633;SDS011;19043;51.012;5.648;2023-03-14T13:14:14;14.73;;;3.97;;
32633;SDS011;19043;51.012;5.648;2023-03-14T13:16:40;9.13;;;3.30;;
32633;SDS011;19043;51.012;5.648;2023-03-14T13:19:14;21.33;;;3.95;;
32633;SDS011;19043;51.012;5.648;2023-03-14T13:21:40;10.65;;;3.78;;
32633;SDS011;19043;51.012;5.648;2023-03-14T13:24:07;12.02;;;4.13;;
32633;SDS011;19043;51.012;5.648;2023-03-14T13:26:43;10.35;;;3.28;;
32633;SDS011;19043;51.012;5.648;2023-03-14T13:31:42;15.73;;;3.88;;
32633;SDS011;19043;51.012;5.648;2023-03-14T13:34:09;9.60;;;3.10;;
32633;SDS011;19043;51.012;5.648;2023-03-14T13:36:35;12.55;;;3.40;;
32633;SDS011;19043;51.012;5.648;2023-03-14T13:39:00;16.58;;;3.88;;
32633;SDS011;19043;51.012;5.648;2023-03-14T13:41:29;9.65;;;3.40;;
32633;SDS011;19043;51.012;5.648;2023-03-14T13:44:01;8.82;;;3.67;;
32633;SDS011;19043;51.012;5.648;2023-03-14T13:46:27;9.20;;;3.33;;
32633;SDS011;19043;51.012;5.648;2023-03-14T13:48:54;13.65;;;3.60;;
32633;SDS011;19043;51.012;5.648;2023-03-14T13:51:20;8.77;;;3.72;;
32633;SDS011;19043;51.012;5.648;2023-03-14T13:53:49;10.55;;;3.55;;
32633;SDS011;19043;51.012;5.648;2023-03-14T13:56:15;20.20;;;4.35;;
32633;SDS011;19043;51.012;5.648;2023-03-14T13:58:40;14.10;;;3.45;;
32633;SDS011;19043;51.012;5.648;2023-03-14T14:01:10;16.42;;;4.00;;
32633;SDS011;19043;51.012;5.648;2023-03-14T14:03:37;10.27;;;3.78;;
32633;SDS011;19043;51.012;5.648;2023-03-14T14:06:03;12.68;;;4.15;;
32633;SDS011;19043;51.012;5.648;2023-03-14T14:08:28;20.70;;;5.38;;
32633;SDS011;19043;51.012;5.648;2023-03-14T14:10:56;12.80;;;4.95;;
32633;SDS011;19043;51.012;5.648;2023-03-14T14:13:22;18.88;;;4.15;;
32633;SDS011;19043;51.012;5.648;2023-03-14T14:15:49;13.57;;;4.25;;
32633;SDS011;19043;51.012;5.648;2023-03-14T14:18:17;18.75;;;4.47;;
32633;SDS011;19043;51.012;5.648;2023-03-14T14:20:44;18.42;;;4.25;;
32633;SDS011;19043;51.012;5.648;2023-03-14T14:23:10;14.10;;;4.75;;
32633;SDS011;19043;51.012;5.648;2023-03-14T14:25:36;11.10;;;3.70;;
32633;SDS011;19043;51.012;5.648;2023-03-14T14:28:20;21.10;;;4.85;;
32633;SDS011;19043;51.012;5.648;2023-03-14T14:30:47;12.23;;;4.00;;
32633;SDS011;19043;51.012;5.648;2023-03-14T14:33:23;8.35;;;3.20;;
32633;SDS011;19043;51.012;5.648;2023-03-14T14:35:56;12.80;;;4.38;;
32633;SDS011;19043;51.012;5.648;2023-03-14T14:38:21;14.93;;;3.85;;
32633;SDS011;19043;51.012;5.648;2023-03-14T14:40:48;12.82;;;4.28;;
32633;SDS011;19043;51.012;5.648;2023-03-14T14:43:18;11.85;;;3.00;;
32633;SDS011;19043;51.012;5.648;2023-03-14T14:45:44;8.82;;;2.78;;
32633;SDS011;19043;51.012;5.648;2023-03-14T14:48:10;10.93;;;2.70;;
32633;SDS011;19043;51.012;5.648;2023-03-14T14:50:37;14.15;;;2.72;;
32633;SDS011;19043;51.012;5.648;2023-03-14T14:53:18;7.10;;;2.60;;
32633;SDS011;19043;51.012;5.648;2023-03-14T14:55:44;9.50;;;3.05;;
32633;SDS011;19043;51.012;5.648;2023-03-14T14:58:29;8.27;;;2.33;;
32633;SDS011;19043;51.012;5.648;2023-03-14T15:00:59;5.80;;;2.53;;
32633;SDS011;19043;51.012;5.648;2023-03-14T15:03:28;8.93;;;1.97;;
32633;SDS011;19043;51.012;5.648;2023-03-14T15:05:54;6.53;;;2.17;;
32633;SDS011;19043;51.012;5.648;2023-03-14T15:08:24;6.57;;;2.05;;
32633;SDS011;19043;51.012;5.648;2023-03-14T15:10:50;6.88;;;2.00;;
32633;SDS011;19043;51.012;5.648;2023-03-14T15:13:15;5.78;;;2.13;;
32633;SDS011;19043;51.012;5.648;2023-03-14T15:15:41;9.50;;;1.98;;
32633;SDS011;19043;51.012;5.648;2023-03-14T15:18:13;8.20;;;2.38;;
32633;SDS011;19043;51.012;5.648;2023-03-14T15:20:39;8.02;;;1.90;;
32633;SDS011;19043;51.012;5.648;2023-03-14T15:23:09;9.23;;;2.53;;
32633;SDS011;19043;51.012;5.648;2023-03-14T15:25:34;11.73;;;2.65;;
32633;SDS011;19043;51.012;5.648;2023-03-14T15:28:00;18.77;;;2.78;;
32633;SDS011;19043;51.012;5.648;2023-03-14T15:30:25;10.07;;;2.33;;
32633;SDS011;19043;51.012;5.648;2023-03-14T15:32:50;9.07;;;2.83;;
32633;SDS011;19043;51.012;5.648;2023-03-14T15:35:15;6.82;;;2.00;;
32633;SDS011;19043;51.012;5.648;2023-03-14T15:37:41;5.93;;;2.15;;